Pedhoulas Trader — C4JM2 — position and weather

sailwx.info

Track history (hours):
 
Tides and Currents Weather Stations Pressure Air Temp Water Temp Dewpoint Dewpoint Depression Visibility Wind Speed Wind Dir Waves Ship Positions

Pedhoulas Trader

Last reported at 2016-May-08 02:23 UTC. Time now 2016-May-26 16:27 UTC.
Position N 48°20' W 126°20'.
Warning: this ship's position is 18 days out of date.

Length 229 m; draft 12.3 m.

Type: Cargo ship. MMSI: 210073000.

Date/timePositionNaut miles runAvg speedWind from/ knotsBaromVisibWave heightAir tempDewpointWater temp
2016-May-08 02:23N 48°20' W 126°20'8 9.7
2016-May-08 01:33N 48°22' W 126°09'28 9.3
2016-May-07 22:33N 48°29' W 125°28'9 8.7
2016-May-07 21:33N 48°30' W 125°15'10 9.8
2016-May-07 20:33N 48°31' W 125°00'1010.6
2016-May-07 19:33N 48°30' W 124°45'1111.2
2016-May-07 18:33N 48°26' W 124°29'1512.4
2016-May-07 17:21N 48°21' W 124°08'1113.0
2016-May-07 16:29N 48°17' W 123°52'1414.6
2016-May-07 15:33N 48°15' W 123°32'1110.7
2016-May-07 14:33N 48°23' W 123°21'1110.9
2016-May-07 13:33N 48°32' W 123°13'1111.0
2016-May-07 12:33N 48°43' W 123°11'9 8.8
2016-May-07 11:33N 48°51' W 123°04'1211.8
2016-May-07 10:33N 48°59' W 123°17'1010.3
2016-May-07 09:33N 49°09' W 123°23'1010.3
2016-May-07 08:33N 49°18' W 123°17'2 1.8
2016-May-07 07:32N 49°18' W 123°14'0 0.0
2016-May-07 06:32N 49°18' W 123°14'0 0.0
2016-May-07 05:32N 49°18' W 123°14'0 0.1
2016-May-07 04:32N 49°18' W 123°14'0 0.2
2016-May-07 03:32N 49°18' W 123°14'0 0.0
2016-May-07 02:32N 49°18' W 123°14'0 0.0
2016-May-07 01:32N 49°18' W 123°14'0 0.1
2016-May-07 00:32N 49°18' W 123°14'0 0.0
2016-May-06 23:32N 49°18' W 123°14'0 0.0
2016-May-06 22:32N 49°18' W 123°14'0 0.0
2016-May-06 21:32N 49°18' W 123°14'0 0.0
2016-May-06 20:32N 49°17' W 123°14'0 0.0
2016-May-06 19:32N 49°17' W 123°14'0 0.1
2016-May-06 18:32N 49°18' W 123°14'0 0.0
2016-May-06 17:32N 49°18' W 123°14'0 0.0
2016-May-06 16:32N 49°18' W 123°14'0 0.0
2016-May-06 15:32N 49°18' W 123°14'0 0.0
2016-May-06 14:32N 49°18' W 123°14'0 0.0
2016-May-06 13:32N 49°18' W 123°14'0 0.0
2016-May-06 12:32N 49°18' W 123°14'0 0.0
2016-May-06 11:32N 49°18' W 123°14'0 0.1
2016-May-06 10:32N 49°18' W 123°14'0 0.2
2016-May-06 09:34N 49°18' W 123°14'0 0.1
2016-May-06 08:34N 49°18' W 123°14'6 5.8
2016-May-06 07:34N 49°18' W 123°05'1 1.0
2016-May-06 06:31N 49°18' W 123°04'0 0.0
2016-May-06 05:31N 49°18' W 123°04'0 0.0
2016-May-06 04:31N 49°18' W 123°04'0 0.0
2016-May-06 03:31N 49°18' W 123°04'0 0.0
2016-May-06 02:31N 49°18' W 123°04'0 0.0
2016-May-06 01:31N 49°18' W 123°04'0 0.0
2016-May-06 00:31N 49°18' W 123°04'0 0.0
2016-May-05 23:31N 49°18' W 123°04'0 0.0
2016-May-05 22:31N 49°18' W 123°04'0 0.0
2016-May-05 21:31N 49°18' W 123°04'0 0.0
2016-May-05 20:31N 49°18' W 123°04'0 0.0
2016-May-05 19:31N 49°18' W 123°04'0 0.0
2016-May-05 18:31N 49°18' W 123°04'0 0.0
2016-May-05 17:31N 49°18' W 123°04'0 0.0
2016-May-05 16:31N 49°18' W 123°04'0 0.0
2016-May-05 15:31N 49°18' W 123°04'0 0.0
2016-May-05 14:31N 49°18' W 123°04'0 0.0
2016-May-05 13:31N 49°18' W 123°04'0 0.0
2016-May-05 12:28N 49°18' W 123°04'0 0.0
2016-May-05 11:31N 49°18' W 123°04'0 0.0
2016-May-05 10:31N 49°18' W 123°04'0 0.0
2016-May-05 09:31N 49°18' W 123°04'0 0.0
2016-May-05 08:31N 49°18' W 123°04'0 0.0
2016-May-05 07:31N 49°18' W 123°04'0 0.0
2016-May-05 06:31N 49°18' W 123°04'0 0.0
2016-May-05 05:31N 49°18' W 123°04'0 0.0
2016-May-05 04:31N 49°18' W 123°04'0 0.0
2016-May-05 03:31N 49°18' W 123°04'0 0.0
2016-May-05 02:31N 49°18' W 123°04'0 0.0
2016-May-05 01:31N 49°18' W 123°04'0 0.0
2016-May-05 00:31N 49°18' W 123°04'0 0.0
2016-May-04 23:31N 49°18' W 123°04'0 0.0
2016-May-04 22:31N 49°18' W 123°04'0 0.0
2016-May-04 21:31N 49°18' W 123°04'0 0.0
2016-May-04 20:31N 49°18' W 123°04'0 0.0
2016-May-04 19:31N 49°18' W 123°04'0 0.0
2016-May-04 18:31N 49°18' W 123°04'0 0.0
2016-May-04 17:31N 49°18' W 123°04'0 0.0
2016-May-04 16:31N 49°18' W 123°04'0 0.0
2016-May-04 15:31N 49°18' W 123°04'0 0.0
2016-May-04 14:31N 49°18' W 123°04'0 0.0
2016-May-04 13:31N 49°18' W 123°04'0 0.0
2016-May-04 12:31N 49°18' W 123°04'0 0.0
2016-May-04 11:31N 49°18' W 123°04'0 0.0
2016-May-04 10:31N 49°18' W 123°04'0 0.0
2016-May-04 09:31N 49°18' W 123°04'0 0.0
2016-May-04 08:31N 49°18' W 123°04'0 0.0
2016-May-04 07:31N 49°18' W 123°04'0 0.0
2016-May-04 06:31N 49°18' W 123°04'0 0.0
2016-May-04 05:31N 49°18' W 123°04'0 0.0
2016-May-04 04:31N 49°18' W 123°04'0 0.0
2016-May-04 03:31N 49°18' W 123°04'0 0.0
2016-May-04 02:31N 49°18' W 123°04'0 0.0
2016-May-04 01:31N 49°18' W 123°04'0 0.0
2016-May-04 00:31N 49°18' W 123°04'0 0.0
2016-May-03 23:31N 49°18' W 123°04'0 0.0
2016-May-03 22:31N 49°18' W 123°04'0 0.0
2016-May-03 21:31N 49°18' W 123°04'0 0.0
2016-May-03 20:31N 49°18' W 123°04'0 0.0
2016-May-03 19:31N 49°18' W 123°04'0 0.0
2016-May-03 18:31N 49°18' W 123°04'0 0.0
2016-May-03 17:31N 49°18' W 123°04'0 0.0
2016-May-03 16:31N 49°18' W 123°04'0 0.0
2016-May-03 15:31N 49°18' W 123°04'0 0.0
2016-May-03 14:31N 49°18' W 123°04'0 0.0
2016-May-03 13:31N 49°18' W 123°04'0 0.0
2016-May-03 12:32N 49°18' W 123°04'0 0.0
2016-May-03 11:31N 49°18' W 123°04'0 0.0
2016-May-03 10:31N 49°18' W 123°04'0 0.0
2016-May-03 09:31N 49°18' W 123°04'0 0.0
2016-May-03 08:31N 49°18' W 123°04'0 0.0
2016-May-03 07:31N 49°18' W 123°04'0 0.0
2016-May-03 06:31N 49°18' W 123°04'0 0.0
2016-May-03 05:31N 49°18' W 123°04'0 0.0
2016-May-03 04:31N 49°18' W 123°04'0 0.0
2016-May-03 03:31N 49°18' W 123°04'0 0.0
2016-May-03 02:31N 49°18' W 123°04'0 0.0
2016-May-03 01:31N 49°18' W 123°04'0 0.0
2016-May-03 00:31N 49°18' W 123°04'0 0.0
2016-May-02 23:31N 49°18' W 123°04'0 0.0
2016-May-02 22:31N 49°18' W 123°04'0 0.0
2016-May-02 21:31N 49°18' W 123°04'0 0.0
2016-May-02 20:31N 49°18' W 123°04'0 0.0
2016-May-02 19:31N 49°18' W 123°04'0 0.0
2016-May-02 18:31N 49°18' W 123°04'0 0.0
2016-May-02 17:31N 49°18' W 123°04'0 0.0
2016-May-02 16:31N 49°18' W 123°04'0 0.0
2016-May-02 15:31N 49°18' W 123°04'0 0.0
2016-May-02 14:31N 49°18' W 123°04'0 0.0
2016-May-02 13:31N 49°18' W 123°04'0 0.0
2016-May-02 12:31N 49°18' W 123°04'0 0.0
2016-May-02 11:31N 49°18' W 123°04'0 0.0
2016-May-02 10:31N 49°18' W 123°04'0 0.0
2016-May-02 09:31N 49°18' W 123°04'0 0.0
2016-May-02 08:31N 49°18' W 123°04'0 0.0
2016-May-02 07:31N 49°18' W 123°04'0 0.0
2016-May-02 06:31N 49°18' W 123°04'0 0.0
2016-May-02 05:31N 49°18' W 123°04'0 0.0
2016-May-02 04:31N 49°18' W 123°04'0 0.0
2016-May-02 03:31N 49°18' W 123°04'0 0.0
2016-May-02 02:31N 49°18' W 123°04'0 0.0
2016-May-02 01:31N 49°18' W 123°04'0 0.0
2016-May-02 00:31N 49°18' W 123°04'0 0.0
2016-May-01 23:31N 49°18' W 123°04'0 0.0
2016-May-01 22:32N 49°18' W 123°04'0 0.0
2016-May-01 21:31N 49°18' W 123°04'0 0.0
2016-May-01 20:31N 49°18' W 123°04'0 0.0
2016-May-01 19:32N 49°18' W 123°04'0 0.0
2016-May-01 18:31N 49°18' W 123°04'0 0.0
2016-May-01 17:31N 49°18' W 123°04'0 0.0
2016-May-01 16:31N 49°18' W 123°04'0 0.0
2016-May-01 15:32N 49°18' W 123°04'0 0.0
2016-May-01 14:31N 49°18' W 123°04'0 0.0
2016-May-01 13:31N 49°18' W 123°04'0 0.0
2016-May-01 12:31N 49°18' W 123°04'0 0.0
2016-May-01 11:31N 49°18' W 123°04'0 0.0
2016-May-01 10:31N 49°18' W 123°04'0 0.0
2016-May-01 09:31N 49°18' W 123°04'0 0.0
2016-May-01 08:31N 49°18' W 123°04'0 0.0
2016-May-01 07:31N 49°18' W 123°04'0 0.0
2016-May-01 06:31N 49°18' W 123°04'0 0.0
2016-May-01 05:31N 49°18' W 123°04'0 0.0
2016-May-01 04:31N 49°18' W 123°04'0 0.0
2016-May-01 03:31N 49°18' W 123°04'0 0.0
2016-May-01 02:32N 49°18' W 123°04'0 0.0
2016-May-01 01:31N 49°18' W 123°04'0 0.0
2016-May-01 00:31N 49°18' W 123°04'0 0.0
2016-Apr-30 23:31N 49°18' W 123°04'0 0.0
2016-Apr-30 22:31N 49°18' W 123°04'0 0.0
2016-Apr-30 21:31N 49°18' W 123°04'0 0.0
2016-Apr-30 20:31N 49°18' W 123°04'0 0.0
2016-Apr-30 19:31N 49°18' W 123°04'0 0.0
2016-Apr-30 18:31N 49°18' W 123°04'0 0.0
2016-Apr-30 17:31N 49°18' W 123°04'0 0.0
2016-Apr-30 16:31N 49°18' W 123°04'0 0.0
2016-Apr-30 15:31N 49°18' W 123°04'0 0.0
2016-Apr-30 14:31N 49°18' W 123°04'0 0.0
2016-Apr-30 13:31N 49°18' W 123°04'0 0.0
2016-Apr-30 12:31N 49°18' W 123°04'0 0.0
2016-Apr-30 11:31N 49°18' W 123°04'0 0.0
2016-Apr-30 10:31N 49°18' W 123°04'0 0.0
2016-Apr-30 09:31N 49°18' W 123°04'0 0.0
2016-Apr-30 08:31N 49°18' W 123°04'0 0.0
2016-Apr-30 07:31N 49°18' W 123°04'0 0.0
2016-Apr-30 06:31N 49°18' W 123°04'0 0.0
2016-Apr-30 05:31N 49°18' W 123°04'0 0.0
2016-Apr-30 04:31N 49°18' W 123°04'0 0.0
2016-Apr-30 03:31N 49°18' W 123°04'0 0.0
2016-Apr-30 02:31N 49°18' W 123°04'0 0.0
2016-Apr-30 01:31N 49°18' W 123°04'0 0.0
2016-Apr-30 00:31N 49°18' W 123°04'0 0.0
2016-Apr-29 23:32N 49°18' W 123°04'0 0.0
2016-Apr-29 22:31N 49°18' W 123°04'0 0.0
2016-Apr-29 21:31N 49°18' W 123°04'0 0.0
2016-Apr-29 20:31N 49°18' W 123°04'0 0.0
2016-Apr-29 19:31N 49°18' W 123°04'0 0.0
2016-Apr-29 18:31N 49°18' W 123°04'0 0.0
2016-Apr-29 17:31N 49°18' W 123°04'0 0.0
2016-Apr-29 16:31N 49°18' W 123°04'0 0.0
2016-Apr-29 15:31N 49°18' W 123°04'0 0.0
2016-Apr-29 14:31N 49°18' W 123°04'0 0.0
2016-Apr-29 13:31N 49°18' W 123°04'0 0.0
2016-Apr-29 12:31N 49°18' W 123°04'0 0.0
2016-Apr-29 11:31N 49°18' W 123°04'0 0.0
2016-Apr-29 10:31N 49°18' W 123°04'0 0.0
2016-Apr-29 09:31N 49°18' W 123°04'0 0.0
2016-Apr-29 08:31N 49°18' W 123°04'0 0.0
2016-Apr-29 07:31N 49°18' W 123°04'0 0.0
2016-Apr-29 06:31N 49°18' W 123°04'0 0.0
2016-Apr-29 05:31N 49°18' W 123°04'0 0.0
2016-Apr-29 04:31N 49°18' W 123°04'0 0.0
2016-Apr-29 03:31N 49°18' W 123°04'0 0.0
2016-Apr-29 02:31N 49°18' W 123°04'0 0.0
2016-Apr-29 01:31N 49°18' W 123°04'0 0.0
2016-Apr-29 00:31N 49°18' W 123°04'0 0.0
2016-Apr-28 23:31N 49°18' W 123°04'0 0.0
2016-Apr-28 22:31N 49°18' W 123°04'0 0.0
2016-Apr-28 21:31N 49°18' W 123°04'0 0.0
2016-Apr-28 20:31N 49°18' W 123°04'0 0.0
2016-Apr-28 19:31N 49°18' W 123°04'0 0.0
2016-Apr-28 18:31N 49°18' W 123°04'0 0.0
2016-Apr-28 17:31N 49°18' W 123°04'0 0.0
2016-Apr-28 16:31N 49°18' W 123°04'0 0.0
2016-Apr-28 15:31N 49°18' W 123°04'0 0.0
2016-Apr-28 14:31N 49°18' W 123°04'0 0.0
2016-Apr-28 13:31N 49°18' W 123°04'0 0.0
2016-Apr-28 12:31N 49°18' W 123°04'0 0.0
2016-Apr-28 11:31N 49°18' W 123°04'0 0.0
2016-Apr-28 10:31N 49°18' W 123°04'0 0.0
2016-Apr-28 09:31N 49°18' W 123°04'0 0.0
2016-Apr-28 08:31N 49°18' W 123°04'0 0.0
2016-Apr-28 07:31N 49°18' W 123°04'0 0.0
2016-Apr-28 06:31N 49°18' W 123°04'0 0.0
2016-Apr-28 05:31N 49°18' W 123°04'0 0.0
2016-Apr-28 04:31N 49°18' W 123°04'0 0.0
2016-Apr-28 03:31N 49°18' W 123°04'0 0.0
2016-Apr-28 02:31N 49°18' W 123°04'  
Track history (hours):
 
Tides and Currents Weather Stations Pressure Air Temp Water Temp Dewpoint Dewpoint Depression Visibility Wind Speed Wind Dir Waves Ship Positions

Pedhoulas Trader

Last reported at 2016-May-08 02:23 UTC. Time now 2016-May-26 16:27 UTC.
Position N 48°20' W 126°20'.
Warning: this ship's position is 18 days out of date.

Length 229 m; draft 12.3 m.

Type: Cargo ship. MMSI: 210073000.

Date/timePositionNaut miles runAvg speedWind from/ knotsBaromVisibWave heightAir tempDewpointWater temp
2016-May-08 02:23N 48°20' W 126°20'8 9.7
2016-May-08 01:33N 48°22' W 126°09'28 9.3
2016-May-07 22:33N 48°29' W 125°28'9 8.7
2016-May-07 21:33N 48°30' W 125°15'10 9.8
2016-May-07 20:33N 48°31' W 125°00'1010.6
2016-May-07 19:33N 48°30' W 124°45'1111.2
2016-May-07 18:33N 48°26' W 124°29'1512.4
2016-May-07 17:21N 48°21' W 124°08'1113.0
2016-May-07 16:29N 48°17' W 123°52'1414.6
2016-May-07 15:33N 48°15' W 123°32'1110.7
2016-May-07 14:33N 48°23' W 123°21'1110.9
2016-May-07 13:33N 48°32' W 123°13'1111.0
2016-May-07 12:33N 48°43' W 123°11'9 8.8
2016-May-07 11:33N 48°51' W 123°04'1211.8
2016-May-07 10:33N 48°59' W 123°17'1010.3
2016-May-07 09:33N 49°09' W 123°23'1010.3
2016-May-07 08:33N 49°18' W 123°17'2 1.8
2016-May-07 07:32N 49°18' W 123°14'0 0.0
2016-May-07 06:32N 49°18' W 123°14'0 0.0
2016-May-07 05:32N 49°18' W 123°14'0 0.1
2016-May-07 04:32N 49°18' W 123°14'0 0.2
2016-May-07 03:32N 49°18' W 123°14'0 0.0
2016-May-07 02:32N 49°18' W 123°14'0 0.0
2016-May-07 01:32N 49°18' W 123°14'0 0.1
2016-May-07 00:32N 49°18' W 123°14'0 0.0
2016-May-06 23:32N 49°18' W 123°14'0 0.0
2016-May-06 22:32N 49°18' W 123°14'0 0.0
2016-May-06 21:32N 49°18' W 123°14'0 0.0
2016-May-06 20:32N 49°17' W 123°14'0 0.0
2016-May-06 19:32N 49°17' W 123°14'0 0.1
2016-May-06 18:32N 49°18' W 123°14'0 0.0
2016-May-06 17:32N 49°18' W 123°14'0 0.0
2016-May-06 16:32N 49°18' W 123°14'0 0.0
2016-May-06 15:32N 49°18' W 123°14'0 0.0
2016-May-06 14:32N 49°18' W 123°14'0 0.0
2016-May-06 13:32N 49°18' W 123°14'0 0.0
2016-May-06 12:32N 49°18' W 123°14'0 0.0
2016-May-06 11:32N 49°18' W 123°14'0 0.1
2016-May-06 10:32N 49°18' W 123°14'0 0.2
2016-May-06 09:34N 49°18' W 123°14'0 0.1
2016-May-06 08:34N 49°18' W 123°14'6 5.8
2016-May-06 07:34N 49°18' W 123°05'1 1.0
2016-May-06 06:31N 49°18' W 123°04'0 0.0
2016-May-06 05:31N 49°18' W 123°04'0 0.0
2016-May-06 04:31N 49°18' W 123°04'0 0.0
2016-May-06 03:31N 49°18' W 123°04'0 0.0
2016-May-06 02:31N 49°18' W 123°04'0 0.0
2016-May-06 01:31N 49°18' W 123°04'0 0.0
2016-May-06 00:31N 49°18' W 123°04'0 0.0
2016-May-05 23:31N 49°18' W 123°04'0 0.0
2016-May-05 22:31N 49°18' W 123°04'0 0.0
2016-May-05 21:31N 49°18' W 123°04'0 0.0
2016-May-05 20:31N 49°18' W 123°04'0 0.0
2016-May-05 19:31N 49°18' W 123°04'0 0.0
2016-May-05 18:31N 49°18' W 123°04'0 0.0
2016-May-05 17:31N 49°18' W 123°04'0 0.0
2016-May-05 16:31N 49°18' W 123°04'0 0.0
2016-May-05 15:31N 49°18' W 123°04'0 0.0
2016-May-05 14:31N 49°18' W 123°04'0 0.0
2016-May-05 13:31N 49°18' W 123°04'0 0.0
2016-May-05 12:28N 49°18' W 123°04'0 0.0
2016-May-05 11:31N 49°18' W 123°04'0 0.0
2016-May-05 10:31N 49°18' W 123°04'0 0.0
2016-May-05 09:31N 49°18' W 123°04'0 0.0
2016-May-05 08:31N 49°18' W 123°04'0 0.0
2016-May-05 07:31N 49°18' W 123°04'0 0.0
2016-May-05 06:31N 49°18' W 123°04'0 0.0
2016-May-05 05:31N 49°18' W 123°04'0 0.0
2016-May-05 04:31N 49°18' W 123°04'0 0.0
2016-May-05 03:31N 49°18' W 123°04'0 0.0
2016-May-05 02:31N 49°18' W 123°04'0 0.0
2016-May-05 01:31N 49°18' W 123°04'0 0.0
2016-May-05 00:31N 49°18' W 123°04'0 0.0
2016-May-04 23:31N 49°18' W 123°04'0 0.0
2016-May-04 22:31N 49°18' W 123°04'0 0.0
2016-May-04 21:31N 49°18' W 123°04'0 0.0
2016-May-04 20:31N 49°18' W 123°04'0 0.0
2016-May-04 19:31N 49°18' W 123°04'0 0.0
2016-May-04 18:31N 49°18' W 123°04'0 0.0
2016-May-04 17:31N 49°18' W 123°04'0 0.0
2016-May-04 16:31N 49°18' W 123°04'0 0.0
2016-May-04 15:31N 49°18' W 123°04'0 0.0
2016-May-04 14:31N 49°18' W 123°04'0 0.0
2016-May-04 13:31N 49°18' W 123°04'0 0.0
2016-May-04 12:31N 49°18' W 123°04'0 0.0
2016-May-04 11:31N 49°18' W 123°04'0 0.0
2016-May-04 10:31N 49°18' W 123°04'0 0.0
2016-May-04 09:31N 49°18' W 123°04'0 0.0
2016-May-04 08:31N 49°18' W 123°04'0 0.0
2016-May-04 07:31N 49°18' W 123°04'0 0.0
2016-May-04 06:31N 49°18' W 123°04'0 0.0
2016-May-04 05:31N 49°18' W 123°04'0 0.0
2016-May-04 04:31N 49°18' W 123°04'0 0.0
2016-May-04 03:31N 49°18' W 123°04'0 0.0
2016-May-04 02:31N 49°18' W 123°04'0 0.0
2016-May-04 01:31N 49°18' W 123°04'0 0.0
2016-May-04 00:31N 49°18' W 123°04'0 0.0
2016-May-03 23:31N 49°18' W 123°04'0 0.0
2016-May-03 22:31N 49°18' W 123°04'0 0.0
2016-May-03 21:31N 49°18' W 123°04'0 0.0
2016-May-03 20:31N 49°18' W 123°04'0 0.0
2016-May-03 19:31N 49°18' W 123°04'0 0.0
2016-May-03 18:31N 49°18' W 123°04'0 0.0
2016-May-03 17:31N 49°18' W 123°04'0 0.0
2016-May-03 16:31N 49°18' W 123°04'0 0.0
2016-May-03 15:31N 49°18' W 123°04'0 0.0
2016-May-03 14:31N 49°18' W 123°04'0 0.0
2016-May-03 13:31N 49°18' W 123°04'0 0.0
2016-May-03 12:32N 49°18' W 123°04'0 0.0
2016-May-03 11:31N 49°18' W 123°04'0 0.0
2016-May-03 10:31N 49°18' W 123°04'0 0.0
2016-May-03 09:31N 49°18' W 123°04'0 0.0
2016-May-03 08:31N 49°18' W 123°04'0 0.0
2016-May-03 07:31N 49°18' W 123°04'0 0.0
2016-May-03 06:31N 49°18' W 123°04'0 0.0
2016-May-03 05:31N 49°18' W 123°04'0 0.0
2016-May-03 04:31N 49°18' W 123°04'0 0.0
2016-May-03 03:31N 49°18' W 123°04'0 0.0
2016-May-03 02:31N 49°18' W 123°04'0 0.0
2016-May-03 01:31N 49°18' W 123°04'0 0.0
2016-May-03 00:31N 49°18' W 123°04'0 0.0
2016-May-02 23:31N 49°18' W 123°04'0 0.0
2016-May-02 22:31N 49°18' W 123°04'0 0.0
2016-May-02 21:31N 49°18' W 123°04'0 0.0
2016-May-02 20:31N 49°18' W 123°04'0 0.0
2016-May-02 19:31N 49°18' W 123°04'0 0.0
2016-May-02 18:31N 49°18' W 123°04'0 0.0
2016-May-02 17:31N 49°18' W 123°04'0 0.0
2016-May-02 16:31N 49°18' W 123°04'0 0.0
2016-May-02 15:31N 49°18' W 123°04'0 0.0
2016-May-02 14:31N 49°18' W 123°04'0 0.0
2016-May-02 13:31N 49°18' W 123°04'0 0.0
2016-May-02 12:31N 49°18' W 123°04'0 0.0
2016-May-02 11:31N 49°18' W 123°04'0 0.0
2016-May-02 10:31N 49°18' W 123°04'0 0.0
2016-May-02 09:31N 49°18' W 123°04'0 0.0
2016-May-02 08:31N 49°18' W 123°04'0 0.0
2016-May-02 07:31N 49°18' W 123°04'0 0.0
2016-May-02 06:31N 49°18' W 123°04'0 0.0
2016-May-02 05:31N 49°18' W 123°04'0 0.0
2016-May-02 04:31N 49°18' W 123°04'0 0.0
2016-May-02 03:31N 49°18' W 123°04'0 0.0
2016-May-02 02:31N 49°18' W 123°04'0 0.0
2016-May-02 01:31N 49°18' W 123°04'0 0.0
2016-May-02 00:31N 49°18' W 123°04'0 0.0
2016-May-01 23:31N 49°18' W 123°04'0 0.0
2016-May-01 22:32N 49°18' W 123°04'0 0.0
2016-May-01 21:31N 49°18' W 123°04'0 0.0
2016-May-01 20:31N 49°18' W 123°04'0 0.0
2016-May-01 19:32N 49°18' W 123°04'0 0.0
2016-May-01 18:31N 49°18' W 123°04'0 0.0
2016-May-01 17:31N 49°18' W 123°04'0 0.0
2016-May-01 16:31N 49°18' W 123°04'0 0.0
2016-May-01 15:32N 49°18' W 123°04'0 0.0
2016-May-01 14:31N 49°18' W 123°04'0 0.0
2016-May-01 13:31N 49°18' W 123°04'0 0.0
2016-May-01 12:31N 49°18' W 123°04'0 0.0
2016-May-01 11:31N 49°18' W 123°04'0 0.0
2016-May-01 10:31N 49°18' W 123°04'0 0.0
2016-May-01 09:31N 49°18' W 123°04'0 0.0
2016-May-01 08:31N 49°18' W 123°04'0 0.0
2016-May-01 07:31N 49°18' W 123°04'0 0.0
2016-May-01 06:31N 49°18' W 123°04'0 0.0
2016-May-01 05:31N 49°18' W 123°04'0 0.0
2016-May-01 04:31N 49°18' W 123°04'0 0.0
2016-May-01 03:31N 49°18' W 123°04'0 0.0
2016-May-01 02:32N 49°18' W 123°04'0 0.0
2016-May-01 01:31N 49°18' W 123°04'0 0.0
2016-May-01 00:31N 49°18' W 123°04'0 0.0
2016-Apr-30 23:31N 49°18' W 123°04'0 0.0
2016-Apr-30 22:31N 49°18' W 123°04'0 0.0
2016-Apr-30 21:31N 49°18' W 123°04'0 0.0
2016-Apr-30 20:31N 49°18' W 123°04'0 0.0
2016-Apr-30 19:31N 49°18' W 123°04'0 0.0
2016-Apr-30 18:31N 49°18' W 123°04'0 0.0
2016-Apr-30 17:31N 49°18' W 123°04'0 0.0
2016-Apr-30 16:31N 49°18' W 123°04'0 0.0
2016-Apr-30 15:31N 49°18' W 123°04'0 0.0
2016-Apr-30 14:31N 49°18' W 123°04'0 0.0
2016-Apr-30 13:31N 49°18' W 123°04'0 0.0
2016-Apr-30 12:31N 49°18' W 123°04'0 0.0
2016-Apr-30 11:31N 49°18' W 123°04'0 0.0
2016-Apr-30 10:31N 49°18' W 123°04'0 0.0
2016-Apr-30 09:31N 49°18' W 123°04'0 0.0
2016-Apr-30 08:31N 49°18' W 123°04'0 0.0
2016-Apr-30 07:31N 49°18' W 123°04'0 0.0
2016-Apr-30 06:31N 49°18' W 123°04'0 0.0
2016-Apr-30 05:31N 49°18' W 123°04'0 0.0
2016-Apr-30 04:31N 49°18' W 123°04'0 0.0
2016-Apr-30 03:31N 49°18' W 123°04'0 0.0
2016-Apr-30 02:31N 49°18' W 123°04'0 0.0
2016-Apr-30 01:31N 49°18' W 123°04'0 0.0
2016-Apr-30 00:31N 49°18' W 123°04'0 0.0
2016-Apr-29 23:32N 49°18' W 123°04'0 0.0
2016-Apr-29 22:31N 49°18' W 123°04'0 0.0
2016-Apr-29 21:31N 49°18' W 123°04'0 0.0
2016-Apr-29 20:31N 49°18' W 123°04'0 0.0
2016-Apr-29 19:31N 49°18' W 123°04'0 0.0
2016-Apr-29 18:31N 49°18' W 123°04'0 0.0
2016-Apr-29 17:31N 49°18' W 123°04'0 0.0
2016-Apr-29 16:31N 49°18' W 123°04'0 0.0
2016-Apr-29 15:31N 49°18' W 123°04'0 0.0
2016-Apr-29 14:31N 49°18' W 123°04'0 0.0
2016-Apr-29 13:31N 49°18' W 123°04'0 0.0
2016-Apr-29 12:31N 49°18' W 123°04'0 0.0
2016-Apr-29 11:31N 49°18' W 123°04'0 0.0
2016-Apr-29 10:31N 49°18' W 123°04'0 0.0
2016-Apr-29 09:31N 49°18' W 123°04'0 0.0
2016-Apr-29 08:31N 49°18' W 123°04'0 0.0
2016-Apr-29 07:31N 49°18' W 123°04'0 0.0
2016-Apr-29 06:31N 49°18' W 123°04'0 0.0
2016-Apr-29 05:31N 49°18' W 123°04'0 0.0
2016-Apr-29 04:31N 49°18' W 123°04'0 0.0
2016-Apr-29 03:31N 49°18' W 123°04'0 0.0
2016-Apr-29 02:31N 49°18' W 123°04'0 0.0
2016-Apr-29 01:31N 49°18' W 123°04'0 0.0
2016-Apr-29 00:31N 49°18' W 123°04'0 0.0
2016-Apr-28 23:31N 49°18' W 123°04'0 0.0
2016-Apr-28 22:31N 49°18' W 123°04'0 0.0
2016-Apr-28 21:31N 49°18' W 123°04'0 0.0
2016-Apr-28 20:31N 49°18' W 123°04'0 0.0
2016-Apr-28 19:31N 49°18' W 123°04'0 0.0
2016-Apr-28 18:31N 49°18' W 123°04'0 0.0
2016-Apr-28 17:31N 49°18' W 123°04'0 0.0
2016-Apr-28 16:31N 49°18' W 123°04'0 0.0
2016-Apr-28 15:31N 49°18' W 123°04'0 0.0
2016-Apr-28 14:31N 49°18' W 123°04'0 0.0
2016-Apr-28 13:31N 49°18' W 123°04'0 0.0
2016-Apr-28 12:31N 49°18' W 123°04'0 0.0
2016-Apr-28 11:31N 49°18' W 123°04'0 0.0
2016-Apr-28 10:31N 49°18' W 123°04'0 0.0
2016-Apr-28 09:31N 49°18' W 123°04'0 0.0
2016-Apr-28 08:31N 49°18' W 123°04'0 0.0
2016-Apr-28 07:31N 49°18' W 123°04'0 0.0
2016-Apr-28 06:31N 49°18' W 123°04'0 0.0
2016-Apr-28 05:31N 49°18' W 123°04'0 0.0
2016-Apr-28 04:31N 49°18' W 123°04'0 0.0
2016-Apr-28 03:31N 49°18' W 123°04'0 0.0
2016-Apr-28 02:31N 49°18' W 123°04'  

Dump ship's entire track history